createdAt,value
2018-12-23T00:02:47.436Z,0.60
2018-12-23T00:07:53.211Z,0.50
2018-12-23T00:12:59.041Z,0.30
2018-12-23T00:18:05.787Z,0.20
2018-12-23T00:23:11.456Z,0.20
2018-12-23T00:28:17.875Z,0.10
2018-12-23T00:33:25.848Z,0.00
2018-12-23T00:38:32.705Z,0.00
2018-12-23T00:43:38.692Z,-0.10
2018-12-23T00:48:45.575Z,-0.10
2018-12-23T00:53:51.349Z,-0.20
2018-12-23T00:58:58.192Z,-0.10
2018-12-23T01:04:04.759Z,-0.20
2018-12-23T01:09:11.670Z,-0.30
2018-12-23T01:14:18.613Z,-0.30
2018-12-23T01:19:27.307Z,-0.40
2018-12-23T01:24:33.191Z,-0.30
2018-12-23T01:29:41.791Z,-0.40
2018-12-23T01:34:47.660Z,-0.50
2018-12-23T01:39:54.332Z,-0.50
2018-12-23T01:45:00.264Z,-0.50
2018-12-23T01:50:07.848Z,-0.50
2018-12-23T01:55:16.713Z,-0.40
2018-12-23T02:00:22.612Z,-0.30
2018-12-23T02:05:28.432Z,-0.40
2018-12-23T02:10:35.121Z,-0.40
2018-12-23T02:15:41.008Z,-0.50
2018-12-23T02:20:49.306Z,-0.50
2018-12-23T02:25:56.569Z,-0.50
2018-12-23T02:31:03.310Z,-0.50
2018-12-23T02:36:09.194Z,-0.50
2018-12-23T02:41:17.622Z,-0.40
2018-12-23T02:46:23.701Z,-0.30
2018-12-23T02:51:29.584Z,-0.20
2018-12-23T02:56:35.509Z,-0.10
2018-12-23T03:01:49.546Z,-0.10
2018-12-23T03:06:57.265Z,0.10
2018-12-23T03:12:03.455Z,0.10
2018-12-23T03:17:09.344Z,0.20
2018-12-23T03:22:15.511Z,0.30
2018-12-23T03:27:21.326Z,0.40
2018-12-23T03:32:28.205Z,0.40
2018-12-23T03:37:34.092Z,0.40
2018-12-23T03:42:39.810Z,0.40
2018-12-23T03:47:45.560Z,0.40
2018-12-23T03:52:51.293Z,0.40
2018-12-23T03:57:57.183Z,0.40
2018-12-23T04:03:02.978Z,0.40
2018-12-23T04:08:10.407Z,0.40
2018-12-23T04:13:16.269Z,0.40
2018-12-23T04:18:23.798Z,0.50
2018-12-23T04:23:29.681Z,0.50
2018-12-23T04:28:35.531Z,0.50
2018-12-23T04:33:41.353Z,0.50
2018-12-23T04:38:47.131Z,0.50
2018-12-23T04:43:52.837Z,0.50
2018-12-23T04:48:59.005Z,0.50
2018-12-23T04:54:05.265Z,0.50
2018-12-23T04:59:11.802Z,0.50
2018-12-23T05:04:17.604Z,0.50
2018-12-23T05:09:23.488Z,0.60
2018-12-23T05:14:30.875Z,0.50
2018-12-23T05:19:37.895Z,0.50
2018-12-23T05:24:45.781Z,0.50
2018-12-23T05:29:51.557Z,0.60
2018-12-23T05:34:57.455Z,0.60
2018-12-23T05:40:03.356Z,0.60
2018-12-23T05:45:09.139Z,0.60
2018-12-23T05:50:15.122Z,0.60
2018-12-23T05:55:25.775Z,0.70
2018-12-23T06:00:31.835Z,0.70
2018-12-23T06:05:39.017Z,0.70
2018-12-23T06:10:47.959Z,0.70
2018-12-23T06:15:54.152Z,0.60
2018-12-23T06:21:00.545Z,0.70
2018-12-23T06:26:07.517Z,0.60
2018-12-23T06:31:13.290Z,0.60
2018-12-23T06:36:19.417Z,0.50
2018-12-23T06:41:25.146Z,0.50
2018-12-23T06:46:31.012Z,0.50
2018-12-23T06:51:37.134Z,0.50
2018-12-23T06:56:43.700Z,0.50
2018-12-23T07:01:49.469Z,0.50
2018-12-23T07:06:56.309Z,0.60
2018-12-23T07:12:03.214Z,0.60
2018-12-23T07:17:09.004Z,0.60
2018-12-23T07:22:15.112Z,0.60
2018-12-23T07:27:21.010Z,0.50
2018-12-23T07:32:26.907Z,0.60
2018-12-23T07:37:33.162Z,0.60
2018-12-23T07:42:39.055Z,0.60
2018-12-23T07:47:44.930Z,0.70
2018-12-23T07:52:53.506Z,0.70
2018-12-23T07:57:59.295Z,0.80
2018-12-23T08:03:05.766Z,0.80
2018-12-23T08:08:12.794Z,0.80
2018-12-23T08:13:18.802Z,0.80
2018-12-23T08:18:25.052Z,0.90
2018-12-23T08:23:30.824Z,1.00
2018-12-23T08:28:36.694Z,1.10
2018-12-23T08:33:42.932Z,1.20
2018-12-23T08:38:49.640Z,1.30
2018-12-23T08:43:55.358Z,1.30
2018-12-23T08:49:04.068Z,1.30
2018-12-23T08:54:11.178Z,1.40
2018-12-23T08:59:17.303Z,1.40
2018-12-23T09:04:23.196Z,1.40
2018-12-23T09:09:28.978Z,1.40
2018-12-23T09:15:12.995Z,1.40
2018-12-23T09:20:20.498Z,1.50
2018-12-23T09:25:28.005Z,1.60
2018-12-23T09:30:35.726Z,1.60
2018-12-23T09:35:43.528Z,1.50
2018-12-23T09:40:51.140Z,1.50
2018-12-23T09:45:58.673Z,1.60
2018-12-23T09:51:06.325Z,1.60
2018-12-23T09:56:13.831Z,1.60
2018-12-23T10:01:21.377Z,1.60
2018-12-23T10:06:28.998Z,1.60
2018-12-23T10:11:36.727Z,1.70
2018-12-23T10:16:44.333Z,1.60
2018-12-23T10:21:51.963Z,1.70
2018-12-23T10:27:00.493Z,1.70
2018-12-23T10:32:08.092Z,1.70
2018-12-23T10:37:15.701Z,1.60
2018-12-23T10:42:24.863Z,1.70
2018-12-23T10:47:33.627Z,1.60
2018-12-23T10:52:41.268Z,1.60
2018-12-23T10:57:49.456Z,1.60
2018-12-23T11:02:56.985Z,1.60
2018-12-23T11:08:04.519Z,1.50
2018-12-23T11:13:12.141Z,1.50
2018-12-23T11:18:19.765Z,1.50
2018-12-23T11:23:27.387Z,1.60
2018-12-23T11:28:35.010Z,1.60
2018-12-23T11:33:42.645Z,1.50
2018-12-23T11:38:50.268Z,1.50
2018-12-23T11:44:00.827Z,1.50
2018-12-23T11:49:08.445Z,1.50
2018-12-23T11:54:16.049Z,1.50
2018-12-23T11:59:23.863Z,1.50
2018-12-23T12:04:31.430Z,1.50
2018-12-23T12:09:38.941Z,1.50
2018-12-23T12:14:46.470Z,1.50
2018-12-23T12:19:53.998Z,1.50
2018-12-23T12:25:01.596Z,1.60
2018-12-23T12:30:09.211Z,1.60
2018-12-23T12:35:16.878Z,1.60
2018-12-23T12:40:24.429Z,1.60
2018-12-23T12:45:31.933Z,1.60
2018-12-23T12:50:40.976Z,1.60
2018-12-23T12:55:48.664Z,1.50
2018-12-23T13:00:57.067Z,1.50
2018-12-23T13:06:07.754Z,1.50
2018-12-23T13:11:16.791Z,1.50
2018-12-23T13:16:24.522Z,1.40
2018-12-23T13:21:32.029Z,1.40
2018-12-23T13:26:39.549Z,1.30
2018-12-23T13:31:47.222Z,1.30
2018-12-23T13:36:54.752Z,1.30
2018-12-23T13:42:36.591Z,1.30
2018-12-23T13:48:10.887Z,1.30
2018-12-23T13:54:02.143Z,1.30
2018-12-23T14:00:04.455Z,1.30
2018-12-23T14:05:45.344Z,1.30
2018-12-23T14:11:19.250Z,1.30
2018-12-23T14:16:26.857Z,1.30
2018-12-23T14:21:34.503Z,1.30
2018-12-23T14:26:42.437Z,1.30
2018-12-23T14:31:51.065Z,1.30
2018-12-23T14:36:58.766Z,1.20
2018-12-23T14:42:06.506Z,1.30
2018-12-23T14:47:14.031Z,1.20
2018-12-23T14:52:21.822Z,1.20
2018-12-23T14:57:30.915Z,1.20
2018-12-23T15:02:39.835Z,1.20
2018-12-23T15:07:47.575Z,1.20
2018-12-23T15:12:55.114Z,1.30
2018-12-23T15:18:02.746Z,1.30
2018-12-23T15:23:10.827Z,1.30
2018-12-23T15:28:18.907Z,1.30
2018-12-23T15:33:27.112Z,1.30
2018-12-23T15:38:35.041Z,1.30
2018-12-23T15:43:42.776Z,1.30
2018-12-23T15:48:50.457Z,1.30
2018-12-23T15:53:58.068Z,1.30
2018-12-23T15:59:08.364Z,1.30
2018-12-23T16:04:15.884Z,1.30
2018-12-23T16:09:23.609Z,1.30
2018-12-23T16:14:31.428Z,1.30
2018-12-23T16:19:39.540Z,1.30
2018-12-23T16:24:47.249Z,1.30
2018-12-23T16:29:55.070Z,1.30
2018-12-23T16:35:02.626Z,1.30
2018-12-23T16:40:12.496Z,1.20
2018-12-23T16:45:21.225Z,1.20
2018-12-23T16:50:28.825Z,1.20
2018-12-23T16:55:36.546Z,1.20
2018-12-23T17:00:44.484Z,1.10
2018-12-23T17:05:51.997Z,1.10
2018-12-23T17:10:59.480Z,1.00
2018-12-23T17:16:08.211Z,1.00
2018-12-23T17:21:15.860Z,1.00
2018-12-23T17:26:23.596Z,1.00
2018-12-23T17:31:31.194Z,1.00
2018-12-23T17:36:38.726Z,1.00
2018-12-23T17:41:46.300Z,1.00
2018-12-23T17:46:53.807Z,1.00
2018-12-23T17:52:01.249Z,1.00
2018-12-23T17:57:08.879Z,1.00
2018-12-23T18:02:16.513Z,1.00
2018-12-23T18:07:24.144Z,1.00
2018-12-23T18:12:31.980Z,1.10
2018-12-23T18:17:40.940Z,1.10
2018-12-23T18:22:50.665Z,1.10
2018-12-23T18:27:59.399Z,1.10
2018-12-23T18:33:08.158Z,1.10
2018-12-23T18:38:16.799Z,1.10
2018-12-23T18:43:24.802Z,1.10
2018-12-23T18:48:32.414Z,1.10
2018-12-23T18:53:40.252Z,1.00
2018-12-23T18:58:47.897Z,1.10
2018-12-23T19:03:55.519Z,1.10
2018-12-23T19:09:13.904Z,1.00
2018-12-23T19:14:56.737Z,1.00
2018-12-23T19:20:39.926Z,1.10
2018-12-23T19:26:27.959Z,1.00
2018-12-23T19:32:18.882Z,1.00
2018-12-23T19:37:47.830Z,1.00
2018-12-23T19:43:42.413Z,1.00
2018-12-23T19:49:35.669Z,1.00
2018-12-23T19:55:32.913Z,1.00
2018-12-23T20:01:09.909Z,1.00
2018-12-23T20:06:42.548Z,1.00
2018-12-23T20:12:30.268Z,1.10
2018-12-23T20:18:18.295Z,1.10
2018-12-23T20:24:05.132Z,1.10
2018-12-23T20:29:44.108Z,1.10
2018-12-23T20:35:38.829Z,1.10
2018-12-23T20:41:52.705Z,1.10
2018-12-23T20:47:20.647Z,1.10
2018-12-23T20:53:01.392Z,1.00
2018-12-23T20:59:02.183Z,1.10
2018-12-23T21:04:54.682Z,1.10
2018-12-23T21:10:31.147Z,1.10
2018-12-23T21:16:13.212Z,1.10
2018-12-23T21:21:56.332Z,1.10
2018-12-23T21:27:45.689Z,1.00
2018-12-23T21:33:44.871Z,1.00
2018-12-23T21:39:25.958Z,1.10
2018-12-23T21:45:30.838Z,1.00
2018-12-23T21:56:56.374Z,1.00
2018-12-23T22:02:47.955Z,1.00
2018-12-23T22:08:40.759Z,1.00
2018-12-23T22:13:49.525Z,1.10
2018-12-23T22:18:58.284Z,1.10
2018-12-23T22:24:07.205Z,1.00
2018-12-23T22:29:14.819Z,1.00
2018-12-23T22:34:22.737Z,0.90
2018-12-23T22:39:30.285Z,1.00
2018-12-23T22:44:38.088Z,0.90
2018-12-23T22:49:45.783Z,1.00
2018-12-23T22:54:53.628Z,0.90
2018-12-23T23:00:03.018Z,0.80
2018-12-23T23:05:13.536Z,0.80
2018-12-23T23:10:21.266Z,0.70
2018-12-23T23:15:29.034Z,0.70
2018-12-23T23:20:37.121Z,0.70
2018-12-23T23:25:44.838Z,0.70
2018-12-23T23:30:52.379Z,0.70
2018-12-23T23:35:59.928Z,0.60
2018-12-23T23:41:07.548Z,0.60
2018-12-23T23:46:15.050Z,0.60
2018-12-23T23:51:22.575Z,0.60
2018-12-23T23:56:30.223Z,0.60
